createdAt,value
2023-02-19T00:00:04.380Z,22.3
2023-02-19T00:05:01.516Z,22.3
2023-02-19T00:10:01.118Z,22.3
2023-02-19T00:15:01.128Z,22.3
2023-02-19T00:20:01.311Z,22.3
2023-02-19T00:25:01.659Z,22.3
2023-02-19T00:30:01.168Z,22.3
2023-02-19T00:35:01.708Z,22.4
2023-02-19T00:40:01.216Z,22.3
2023-02-19T00:45:03.341Z,22.3
2023-02-19T00:50:01.080Z,22.3
2023-02-19T00:55:01.863Z,22.4
2023-02-19T01:00:02.062Z,22.4
2023-02-19T01:05:01.106Z,22.4
2023-02-19T01:10:01.079Z,22.4
2023-02-19T01:15:01.443Z,22.4
2023-02-19T01:20:01.295Z,22.3
2023-02-19T01:25:01.272Z,22.4
2023-02-19T01:30:01.568Z,22.4
2023-02-19T01:35:01.351Z,22.4
2023-02-19T01:40:01.106Z,22.4
2023-02-19T01:45:01.587Z,22.4
2023-02-19T01:50:02.684Z,22.4
2023-02-19T01:55:01.539Z,22.4
2023-02-19T02:00:01.513Z,22.4
2023-02-19T02:05:01.531Z,22.4
2023-02-19T02:10:01.108Z,22.4
2023-02-19T02:15:01.897Z,22.3
2023-02-19T02:20:00.463Z,22.3
2023-02-19T02:25:01.047Z,22.2
2023-02-19T02:30:01.940Z,22.0
2023-02-19T02:35:01.366Z,21.8
2023-02-19T02:40:03.943Z,21.5
2023-02-19T02:45:01.070Z,21.4
2023-02-19T02:50:01.507Z,21.3
2023-02-19T02:55:02.716Z,21.3
2023-02-19T03:00:01.837Z,21.3
2023-02-19T03:05:01.044Z,21.3
2023-02-19T03:10:01.320Z,21.3
2023-02-19T03:15:01.471Z,21.3
2023-02-19T03:20:03.882Z,21.4
2023-02-19T03:25:00.539Z,21.4
2023-02-19T03:30:01.413Z,21.4
2023-02-19T03:35:01.061Z,21.4
2023-02-19T03:40:01.482Z,21.4
2023-02-19T03:45:01.959Z,21.4
2023-02-19T03:50:01.305Z,21.5
2023-02-19T03:55:01.445Z,21.5
2023-02-19T04:00:03.963Z,21.5
2023-02-19T04:05:01.085Z,21.5
2023-02-19T04:10:02.555Z,21.5
2023-02-19T04:15:01.348Z,21.5
2023-02-19T04:20:01.603Z,21.5
2023-02-19T04:25:01.477Z,21.5
2023-02-19T04:30:01.630Z,21.6
2023-02-19T04:35:01.529Z,21.6
2023-02-19T04:40:00.481Z,21.6
2023-02-19T04:45:00.978Z,21.6
2023-02-19T04:50:01.557Z,21.5
2023-02-19T04:55:01.564Z,21.6
2023-02-19T05:00:04.068Z,21.6
2023-02-19T05:05:03.478Z,21.6
2023-02-19T05:10:03.524Z,21.6
2023-02-19T05:15:03.028Z,21.6
2023-02-19T05:20:01.521Z,21.6
2023-02-19T05:25:01.298Z,21.6
2023-02-19T05:30:01.344Z,21.6
2023-02-19T05:35:01.023Z,21.6
2023-02-19T05:40:01.543Z,21.6
2023-02-19T05:45:01.210Z,21.6
2023-02-19T05:50:01.102Z,21.6
2023-02-19T05:55:02.060Z,21.6
2023-02-19T06:00:02.025Z,21.6
2023-02-19T06:05:01.874Z,21.6
2023-02-19T06:10:01.294Z,21.5
2023-02-19T06:15:01.464Z,21.6
2023-02-19T06:20:01.225Z,21.6
2023-02-19T06:25:01.969Z,21.5
2023-02-19T06:30:01.020Z,21.6
2023-02-19T06:35:01.087Z,21.5
2023-02-19T06:40:01.926Z,21.6
2023-02-19T06:45:01.511Z,21.6
2023-02-19T06:50:01.069Z,21.6
2023-02-19T06:55:01.528Z,21.6
2023-02-19T07:00:01.169Z,21.6
2023-02-19T07:05:01.388Z,21.5
2023-02-19T07:10:01.485Z,21.6
2023-02-19T07:15:01.459Z,21.5
2023-02-19T07:20:01.070Z,21.6
2023-02-19T07:25:02.354Z,21.5
2023-02-19T07:30:01.172Z,21.6
2023-02-19T07:35:01.246Z,21.6
2023-02-19T07:40:01.092Z,21.5
2023-02-19T07:45:01.136Z,21.6
2023-02-19T07:50:02.466Z,21.6
2023-02-19T07:55:01.100Z,21.6
2023-02-19T08:00:02.360Z,21.6
2023-02-19T08:05:01.979Z,21.6
2023-02-19T08:10:01.558Z,21.5
2023-02-19T08:15:01.526Z,21.6
2023-02-19T08:20:00.459Z,21.6
2023-02-19T08:25:01.343Z,21.5
2023-02-19T08:30:02.088Z,21.6
2023-02-19T08:35:01.089Z,21.6
2023-02-19T08:40:01.555Z,21.5
2023-02-19T08:45:02.253Z,21.6
2023-02-19T08:50:01.102Z,21.6
2023-02-19T08:55:01.637Z,21.6
2023-02-19T09:00:01.363Z,21.6
2023-02-19T09:05:01.311Z,21.6
2023-02-19T09:10:01.077Z,21.6
2023-02-19T09:15:01.882Z,21.6
2023-02-19T09:20:01.011Z,21.7
2023-02-19T09:25:01.017Z,21.6
2023-02-19T09:30:03.007Z,21.7
2023-02-19T09:35:01.341Z,21.7
2023-02-19T09:40:01.141Z,21.7
2023-02-19T09:45:01.928Z,21.7
2023-02-19T09:50:01.299Z,21.7
2023-02-19T09:55:03.784Z,21.8
2023-02-19T10:00:01.569Z,21.8
2023-02-19T10:05:01.087Z,21.8
2023-02-19T10:10:01.541Z,21.8
2023-02-19T10:15:03.016Z,21.8
2023-02-19T10:20:02.309Z,21.8
2023-02-19T10:25:01.274Z,21.9
2023-02-19T10:30:01.210Z,21.9
2023-02-19T10:35:01.743Z,21.9
2023-02-19T10:40:01.043Z,21.9
2023-02-19T10:45:01.466Z,21.9
2023-02-19T10:50:04.092Z,21.9
2023-02-19T10:55:01.929Z,21.9
2023-02-19T11:00:01.253Z,21.9
2023-02-19T11:05:03.904Z,22.0
2023-02-19T11:10:04.826Z,22.0
2023-02-19T11:15:01.484Z,22.0
2023-02-19T11:20:02.433Z,22.0
2023-02-19T11:25:02.924Z,22.0
2023-02-19T11:30:00.538Z,22.0
2023-02-19T11:35:01.011Z,22.0
2023-02-19T11:40:01.062Z,22.0
2023-02-19T11:45:01.143Z,22.0
2023-02-19T11:50:02.765Z,22.0
2023-02-19T11:55:02.155Z,22.0
2023-02-19T12:00:02.726Z,22.0
2023-02-19T12:05:01.548Z,22.0
2023-02-19T12:10:02.363Z,22.1
2023-02-19T12:15:01.354Z,22.0
2023-02-19T12:20:02.650Z,22.1
2023-02-19T12:25:01.267Z,22.1
2023-02-19T12:30:01.597Z,22.0
2023-02-19T12:35:01.531Z,22.0
2023-02-19T12:40:01.229Z,21.8
2023-02-19T12:45:01.013Z,21.5
2023-02-19T12:50:02.041Z,21.4
2023-02-19T12:55:01.308Z,21.2
2023-02-19T13:00:00.958Z,21.0
2023-02-19T13:05:02.238Z,21.0
2023-02-19T13:10:01.517Z,21.0
2023-02-19T13:15:01.005Z,21.0
2023-02-19T13:20:01.211Z,21.0
2023-02-19T13:25:01.110Z,21.1
2023-02-19T13:30:02.270Z,21.1
2023-02-19T13:35:01.180Z,21.2
2023-02-19T13:40:01.237Z,21.2
2023-02-19T13:45:01.015Z,21.3
2023-02-19T13:50:03.264Z,21.4
2023-02-19T13:55:01.570Z,21.4
2023-02-19T14:00:01.551Z,21.5
2023-02-19T14:05:01.159Z,21.5
2023-02-19T14:10:01.982Z,21.6
2023-02-19T14:15:01.336Z,21.6
2023-02-19T14:25:02.489Z,21.7
2023-02-19T14:30:03.000Z,21.7
2023-02-19T14:35:02.135Z,21.6
2023-02-19T14:40:00.460Z,21.5
2023-02-19T14:45:01.526Z,21.4
2023-02-19T14:50:01.115Z,21.4
2023-02-19T14:55:01.018Z,21.4
2023-02-19T15:00:01.154Z,21.5
2023-02-19T15:05:01.660Z,21.5
2023-02-19T15:10:03.699Z,21.5
2023-02-19T15:15:01.079Z,21.6
2023-02-19T15:20:02.459Z,21.6
2023-02-19T15:25:01.770Z,21.7
2023-02-19T15:30:00.516Z,21.8
2023-02-19T15:35:01.143Z,22.0
2023-02-19T15:40:01.305Z,22.1
2023-02-19T15:45:02.934Z,22.1
2023-02-19T15:50:01.362Z,22.2
2023-02-19T15:55:01.891Z,22.2
2023-02-19T16:00:02.043Z,22.2
2023-02-19T16:05:02.036Z,22.3
2023-02-19T16:10:01.288Z,22.3
2023-02-19T16:15:02.311Z,22.3
2023-02-19T16:20:01.155Z,22.3
2023-02-19T16:25:01.882Z,22.3
2023-02-19T16:30:01.404Z,22.3
2023-02-19T16:35:03.709Z,22.3
2023-02-19T16:40:02.374Z,22.3
2023-02-19T16:45:01.899Z,22.3
2023-02-19T16:50:01.973Z,22.3
2023-02-19T16:55:01.919Z,22.4
2023-02-19T17:00:01.077Z,22.3
2023-02-19T17:05:01.227Z,22.3
2023-02-19T17:10:01.343Z,22.3
2023-02-19T17:15:01.566Z,22.3
2023-02-19T17:20:01.889Z,22.3
2023-02-19T17:25:00.993Z,22.3
2023-02-19T17:30:01.160Z,22.3
2023-02-19T17:35:01.535Z,22.3
2023-02-19T17:40:01.144Z,22.3
2023-02-19T17:45:00.993Z,22.2
2023-02-19T17:50:02.391Z,22.2
2023-02-19T17:55:01.875Z,22.2
2023-02-19T18:00:00.462Z,22.2
2023-02-19T18:05:01.729Z,22.2
2023-02-19T18:10:03.843Z,22.3
2023-02-19T18:15:02.608Z,22.2
2023-02-19T18:20:01.292Z,22.2
2023-02-19T18:25:01.060Z,22.2
2023-02-19T18:30:02.049Z,22.2
2023-02-19T18:35:02.093Z,22.2
2023-02-19T18:40:00.470Z,22.2
2023-02-19T18:45:00.867Z,22.2
2023-02-19T18:50:01.625Z,22.2
2023-02-19T18:55:01.043Z,22.2
2023-02-19T19:00:01.181Z,22.2
2023-02-19T19:05:01.934Z,22.2
2023-02-19T19:10:01.032Z,22.2
2023-02-19T19:15:01.594Z,22.2
2023-02-19T19:20:02.327Z,22.2
2023-02-19T19:25:01.311Z,22.2
2023-02-19T19:30:01.004Z,22.2
2023-02-19T19:35:02.115Z,22.1
2023-02-19T19:40:01.183Z,22.2
2023-02-19T19:45:01.518Z,22.2
2023-02-19T19:50:01.362Z,22.2
2023-02-19T19:55:00.497Z,22.1
2023-02-19T20:00:00.863Z,22.1
2023-02-19T20:05:01.057Z,22.1
2023-02-19T20:10:01.504Z,22.2
2023-02-19T20:15:01.321Z,22.1
2023-02-19T20:20:01.504Z,22.1
2023-02-19T20:25:01.368Z,22.1
2023-02-19T20:30:01.251Z,22.2
2023-02-19T20:35:02.144Z,22.1
2023-02-19T20:40:02.395Z,22.1
2023-02-19T20:45:01.640Z,22.2
2023-02-19T20:50:01.864Z,22.1
2023-02-19T20:55:01.271Z,22.2
2023-02-19T21:00:02.278Z,22.2
2023-02-19T21:05:02.807Z,22.1
2023-02-19T21:10:11.101Z,22.1
2023-02-19T21:15:01.301Z,22.2
2023-02-19T21:20:01.054Z,22.1
2023-02-19T21:25:01.310Z,22.1
2023-02-19T21:30:01.301Z,22.2
2023-02-19T21:35:01.828Z,22.2
2023-02-19T21:40:01.409Z,22.2
2023-02-19T21:45:01.317Z,22.2
2023-02-19T21:50:01.401Z,22.2
2023-02-19T21:55:01.585Z,22.2
2023-02-19T22:00:00.810Z,22.2
2023-02-19T22:05:01.135Z,22.2
2023-02-19T22:10:01.401Z,22.2
2023-02-19T22:15:01.583Z,22.2
2023-02-19T22:20:01.299Z,22.2
2023-02-19T22:25:01.351Z,22.2
2023-02-19T22:30:01.565Z,22.2
2023-02-19T22:35:01.539Z,22.2
2023-02-19T22:40:01.319Z,22.2
2023-02-19T22:45:01.121Z,22.2
2023-02-19T22:50:02.331Z,22.2
2023-02-19T22:55:01.066Z,22.2
2023-02-19T23:00:01.327Z,22.2
2023-02-19T23:05:01.260Z,22.2
2023-02-19T23:10:03.081Z,22.2
2023-02-19T23:15:01.062Z,22.2
2023-02-19T23:20:01.798Z,22.2
2023-02-19T23:25:01.922Z,22.2
2023-02-19T23:30:01.964Z,22.2
2023-02-19T23:35:01.561Z,22.2
2023-02-19T23:40:01.117Z,22.2
2023-02-19T23:45:01.305Z,22.2
2023-02-19T23:50:01.080Z,22.2
2023-02-19T23:55:01.127Z,22.3
